La Coste, Texas
Current Conditions -  °F | °C
As of 3:55 AM on Saturday 25 Oct 2014 (Local Time) from KCVB Reporting Station
Clear Clear  
Wind Chill: 60°   Ceiling: Unl
Heat Index: 60°   Visibility: 7mi
Dew Point: 52°   Wind: 3mph
Humidity: 74%   Direction: 310°NW
Pressure: 30.17"   Gusts: NA
Location:  29.31°N, 98.81°W
Report Text: KCVB 250855Z AUTO 31003KT 7SM CLR 16/11 A3017 RMK AO2 T01560109
Loading
Personal Weather Stations






























Interactive Weather Map
Tropical Storm Tracking
New forecast layout! Learn more

10-Day Weather Forecast

Advertisements
Track Severe Weather on mobile